General Aviation Weather

Text Reports

Enter one or more of the following location identifiers separated by a space:

Zip Code, Four-Character ICAO or Three-Character IATA airport codes.

METAR - Aviation Routine Weather Report
KGPM - Grand Prairie, Texas
Updated at 10:50 PM GMT on February 10, 2016 (4:50 PM CST):
METAR KGPM 102250Z 21010KT 10SM SKC 23/M02 A3011
TAF - Terminal Area Forecast
KGPM - Grand Prairie, Texas
Updated at 10:50 PM GMT on February 10, 2016 (4:50 PM CST):
No TAF is currently available for this location.
Decoded:
No decoded TAF is available.
PIREP - Pilot Weather Report
KGPM - Grand Prairie, Texas
Updated at 10:50 PM GMT on February 10, 2016 (4:50 PM CST):
No PIREP is currently available for this location.
AIRMET - Airmens Meteorological Information
KGPM - Grand Prairie, Texas
Updated at 10:50 PM GMT on February 10, 2016 (4:50 PM CST):
No AIRMET is currently available for this location.
SIGMET - Significant Meteorological Information
KGPM - Grand Prairie, Texas
Updated at 10:50 PM GMT on February 10, 2016 (4:50 PM CST):
No SIGMET is currently available for this location.
NOTAM - Notice to Airmen
KGPM - Grand Prairie, Texas
Updated at 10:50 PM GMT on February 10, 2016 (4:50 PM CST):
No NOTAM is currently available for this location.
Forecast Area
KGPM - Grand Prairie, Texas
Updated at 10:50 PM GMT on February 10, 2016 (4:50 PM CST):
No NOTAM is currently available for this location.
Aviation Weather Maps